Time;durP1;ratioP1;P1;durP2;ratioP2;P2;SDS_P1;SDS_P2;PMS_P1;PMS_P2;Temp;Humidity;BMP_temperature;BMP_pressure;BME280_temperature;BME280_humidity;BME280_pressure;Samples;Min_cycle;Max_cycle;Signal;HPM_P1;HPM_P2
2022/05/20 00:00:06;;;;;;;6.55;2.77;;;;;;;;;;345869;152;859483;-58
2022/05/20 00:01:08;;;;;;;6.42;2.61;;;;;;;;;;349306;150;857293;-58
2022/05/20 00:02:10;;;;;;;5.20;2.69;;;;;;;;;;350860;151;858708;-58
2022/05/20 00:03:11;;;;;;;3.29;2.44;;;;;;;;;;351224;151;866059;-57
2022/05/20 00:04:13;;;;;;;8.57;3.06;;;;;;;;;;351742;151;857166;-58
2022/05/20 00:05:14;;;;;;;3.46;2.23;;;;;;;;;;346866;154;857915;-57
2022/05/20 00:06:16;;;;;;;6.26;2.53;;;;;;;;;;340272;155;859019;-59
2022/05/20 00:07:18;;;;;;;5.19;2.47;;;;;;;;;;341940;155;858976;-56
2022/05/20 00:08:19;;;;;;;7.12;2.75;;;;;;;;;;347605;153;857159;-56
2022/05/20 00:09:21;;;;;;;6.31;2.53;;;;;;;;;;348364;151;859080;-58
2022/05/20 00:10:23;;;;;;;4.21;2.59;;;;;;;;;;347221;151;858762;-57
2022/05/20 00:11:24;;;;;;;5.13;2.45;;;;;;;;;;351264;149;867190;-57
2022/05/20 00:12:26;;;;;;;3.69;2.46;;;;;;;;;;351630;150;858694;-57
2022/05/20 00:13:27;;;;;;;6.48;2.52;;;;;;;;;;352099;151;857203;-57
2022/05/20 00:14:30;;;;;;;4.71;2.63;;;;;;;;;;346401;152;864798;-57
2022/05/20 00:15:32;;;;;;;6.52;2.48;;;;;;;;;;348012;151;857212;-57
2022/05/20 00:16:36;;;;;;;3.98;2.25;;;;;;;;;;347758;154;857578;-58
2022/05/20 00:17:38;;;;;;;4.97;2.81;;;;;;;;;;344703;155;866571;-57
2022/05/20 00:18:40;;;;;;;6.97;2.67;;;;;;;;;;351031;151;857878;-57
2022/05/20 00:19:41;;;;;;;5.97;2.51;;;;;;;;;;350980;151;864729;-57
2022/05/20 00:20:43;;;;;;;5.81;2.58;;;;;;;;;;347734;151;864991;-56
2022/05/20 00:21:45;;;;;;;4.79;2.76;;;;;;;;;;345054;154;857214;-57
2022/05/20 00:22:47;;;;;;;9.66;2.59;;;;;;;;;;351847;151;866646;-57
2022/05/20 00:23:48;;;;;;;4.20;2.02;;;;;;;;;;350978;149;857301;-56
2022/05/20 00:26:10;;;;;;;4.66;2.44;;;;;;;;;;349166;151;866961;-58
2022/05/20 00:27:12;;;;;;;4.82;2.52;;;;;;;;;;346822;154;864686;-57
2022/05/20 00:28:15;;;;;;;7.57;2.64;;;;;;;;;;344664;154;866475;-59
2022/05/20 00:29:17;;;;;;;3.56;2.36;;;;;;;;;;348118;151;857391;-57
2022/05/20 00:30:19;;;;;;;3.95;2.26;;;;;;;;;;344617;154;865833;-57
2022/05/20 00:31:22;;;;;;;5.26;2.39;;;;;;;;;;351560;151;857554;-59
2022/05/20 00:32:23;;;;;;;5.65;2.26;;;;;;;;;;351316;151;866934;-58
2022/05/20 00:33:25;;;;;;;4.04;2.20;;;;;;;;;;347143;153;857326;-56
2022/05/20 00:34:26;;;;;;;3.95;2.31;;;;;;;;;;351679;151;866561;-57
2022/05/20 00:35:28;;;;;;;4.79;2.26;;;;;;;;;;351068;150;865939;-57
2022/05/20 00:36:30;;;;;;;3.63;2.46;;;;;;;;;;344802;154;857474;-57
2022/05/20 00:37:31;;;;;;;2.96;2.14;;;;;;;;;;347607;151;865280;-58
2022/05/20 00:38:33;;;;;;;9.82;2.21;;;;;;;;;;347627;151;864827;-57
2022/05/20 00:39:34;;;;;;;5.68;2.29;;;;;;;;;;345320;155;858693;-56
2022/05/20 00:40:36;;;;;;;7.17;2.86;;;;;;;;;;347235;154;858915;-58
2022/05/20 00:41:38;;;;;;;4.64;2.26;;;;;;;;;;347969;153;866010;-60
2022/05/20 00:42:39;;;;;;;6.21;2.49;;;;;;;;;;345907;151;857726;-58
2022/05/20 00:43:42;;;;;;;5.67;2.57;;;;;;;;;;347642;154;857251;-58
2022/05/20 00:44:44;;;;;;;4.43;2.31;;;;;;;;;;346649;154;864840;-58
2022/05/20 00:45:45;;;;;;;3.29;2.04;;;;;;;;;;348579;151;865187;-59
2022/05/20 00:46:47;;;;;;;5.41;2.16;;;;;;;;;;347365;153;863285;-57
2022/05/20 00:47:48;;;;;;;3.32;2.06;;;;;;;;;;350685;150;856144;-57
2022/05/20 00:48:52;;;;;;;4.96;2.14;;;;;;;;;;351306;151;856170;-57
2022/05/20 00:49:53;;;;;;;5.39;2.33;;;;;;;;;;348524;152;856174;-57
2022/05/20 00:50:57;;;;;;;4.51;2.18;;;;;;;;;;351356;151;856803;-58
2022/05/20 00:51:58;;;;;;;4.43;2.41;;;;;;;;;;346137;154;856651;-58
2022/05/20 00:53:00;;;;;;;4.44;2.25;;;;;;;;;;350894;152;856334;-58
2022/05/20 00:54:04;;;;;;;6.31;2.60;;;;;;;;;;350100;152;863743;-57
2022/05/20 00:55:06;;;;;;;6.91;2.66;;;;;;;;;;350127;152;856593;-58
2022/05/20 00:56:08;;;;;;;7.04;2.27;;;;;;;;;;346077;154;863575;-58
2022/05/20 00:57:15;;;;;;;5.23;2.28;;;;;;;;;;345663;152;864357;-57
2022/05/20 00:58:18;;;;;;;4.77;2.24;;;;;;;;;;345170;152;856816;-58
2022/05/20 00:59:21;;;;;;;4.62;2.08;;;;;;;;;;349940;152;856027;-57
2022/05/20 01:00:23;;;;;;;4.15;2.22;;;;;;;;;;350373;152;855998;-58
2022/05/20 01:01:26;;;;;;;4.18;2.01;;;;;;;;;;349751;152;855993;-59
2022/05/20 01:04:18;;;;;;;5.60;2.36;;;;;;;;;;371256;142;881506;-56
2022/05/20 01:05:27;;;;;;;4.24;2.02;;;;;;;;;;362109;147;857130;-56
2022/05/20 01:06:29;;;;;;;4.03;1.88;;;;;;;;;;360536;147;857207;-58
2022/05/20 01:07:31;;;;;;;5.39;2.84;;;;;;;;;;361722;147;857782;-56
2022/05/20 01:08:32;;;;;;;4.34;2.48;;;;;;;;;;362253;147;865883;-58
2022/05/20 01:09:37;;;;;;;4.37;2.10;;;;;;;;;;361930;147;858529;-56
2022/05/20 01:10:38;;;;;;;6.35;2.22;;;;;;;;;;362750;147;857884;-57
2022/05/20 01:11:40;;;;;;;4.33;1.99;;;;;;;;;;364098;147;864850;-58
2022/05/20 01:12:42;;;;;;;6.06;2.22;;;;;;;;;;362293;147;866429;-56
2022/05/20 01:13:47;;;;;;;5.74;2.54;;;;;;;;;;361945;147;857242;-57
2022/05/20 01:14:47;;;;;;;5.13;2.81;;;;;;;;;;363046;147;856321;-57
2022/05/20 01:15:49;;;;;;;3.53;1.90;;;;;;;;;;361896;147;859086;-56
2022/05/20 01:16:50;;;;;;;5.21;2.54;;;;;;;;;;361496;147;857952;-56
2022/05/20 01:17:52;;;;;;;5.30;2.10;;;;;;;;;;362166;147;857213;-59
2022/05/20 01:18:56;;;;;;;4.30;1.81;;;;;;;;;;362332;147;857382;-56
2022/05/20 01:19:57;;;;;;;5.69;2.28;;;;;;;;;;361644;147;857316;-56
2022/05/20 01:20:59;;;;;;;5.46;1.94;;;;;;;;;;364106;147;858206;-59
2022/05/20 01:22:01;;;;;;;6.44;2.24;;;;;;;;;;362055;147;857905;-57
2022/05/20 01:23:07;;;;;;;4.91;2.38;;;;;;;;;;358874;147;864885;-57
2022/05/20 01:24:09;;;;;;;4.88;2.52;;;;;;;;;;356979;147;857356;-56
2022/05/20 01:25:11;;;;;;;7.33;2.13;;;;;;;;;;357951;147;857811;-57
2022/05/20 01:26:14;;;;;;;4.70;2.47;;;;;;;;;;358753;147;860456;-57
2022/05/20 01:27:15;;;;;;;3.41;2.21;;;;;;;;;;357033;147;858648;-58
2022/05/20 01:28:18;;;;;;;5.66;2.00;;;;;;;;;;358828;148;857308;-59
2022/05/20 01:29:19;;;;;;;4.39;2.05;;;;;;;;;;357511;147;866538;-60
2022/05/20 01:30:22;;;;;;;4.63;2.44;;;;;;;;;;357474;148;857308;-58
2022/05/20 01:31:23;;;;;;;4.78;2.25;;;;;;;;;;357776;147;866980;-58
2022/05/20 01:32:25;;;;;;;3.87;2.06;;;;;;;;;;358087;147;857209;-58
2022/05/20 01:33:31;;;;;;;4.94;2.20;;;;;;;;;;357900;150;857272;-58
2022/05/20 01:34:33;;;;;;;4.77;2.19;;;;;;;;;;343872;152;857441;-57
2022/05/20 01:35:36;;;;;;;3.93;2.39;;;;;;;;;;358916;147;858583;-56
2022/05/20 01:36:38;;;;;;;5.97;1.95;;;;;;;;;;357143;147;859393;-56
2022/05/20 01:37:40;;;;;;;2.63;1.82;;;;;;;;;;357347;147;865080;-57
2022/05/20 01:38:41;;;;;;;3.27;2.05;;;;;;;;;;358390;147;857644;-57
2022/05/20 01:39:43;;;;;;;3.77;2.18;;;;;;;;;;358804;147;859018;-57
2022/05/20 01:40:47;;;;;;;4.33;2.39;;;;;;;;;;357881;147;864973;-57
2022/05/20 01:41:53;;;;;;;10.55;2.13;;;;;;;;;;358108;146;857921;-57
2022/05/20 01:43:02;;;;;;;4.22;2.01;;;;;;;;;;357308;147;857643;-56
2022/05/20 01:44:21;;;;;;;4.62;2.12;;;;;;;;;;349305;150;857895;-58
2022/05/20 01:45:30;;;;;;;3.45;2.07;;;;;;;;;;356149;147;858605;-56
2022/05/20 01:46:42;;;;;;;4.59;1.99;;;;;;;;;;358506;147;857342;-57
2022/05/20 01:47:45;;;;;;;4.86;2.12;;;;;;;;;;357313;147;857327;-58
2022/05/20 01:49:01;;;;;;;9.20;2.14;;;;;;;;;;357544;147;859353;-58
2022/05/20 01:50:07;;;;;;;4.87;2.08;;;;;;;;;;357293;147;858963;-57
2022/05/20 01:51:10;;;;;;;3.32;1.80;;;;;;;;;;358157;148;857288;-57
2022/05/20 01:52:16;;;;;;;4.77;2.27;;;;;;;;;;357252;147;857237;-58
2022/05/20 01:53:26;;;;;;;3.31;2.03;;;;;;;;;;358127;147;865904;-58
2022/05/20 01:54:29;;;;;;;3.13;2.00;;;;;;;;;;357611;147;857666;-58
2022/05/20 01:55:45;;;;;;;7.22;2.52;;;;;;;;;;357655;147;857296;-58
2022/05/20 01:56:48;;;;;;;4.72;2.16;;;;;;;;;;357496;147;859768;-57
2022/05/20 01:58:01;;;;;;;5.22;2.07;;;;;;;;;;357507;147;858242;-57
2022/05/20 01:59:07;;;;;;;3.62;1.86;;;;;;;;;;357782;147;858651;-56
2022/05/20 02:00:11;;;;;;;3.91;2.28;;;;;;;;;;357156;147;857233;-57
2022/05/20 02:01:17;;;;;;;6.29;2.36;;;;;;;;;;358419;149;859458;-57
2022/05/20 02:02:32;;;;;;;3.24;1.83;;;;;;;;;;358258;147;859785;-56
2022/05/20 02:03:36;;;;;;;3.65;2.03;;;;;;;;;;358102;147;857283;-58
2022/05/20 02:04:43;;;;;;;4.36;2.16;;;;;;;;;;354857;147;859874;-57
2022/05/20 02:05:47;;;;;;;7.41;2.45;;;;;;;;;;353489;150;860184;-59
2022/05/20 02:06:51;;;;;;;6.67;2.27;;;;;;;;;;353185;151;857154;-57
2022/05/20 02:07:54;;;;;;;3.71;2.41;;;;;;;;;;353734;151;857922;-57
2022/05/20 02:08:57;;;;;;;5.76;2.31;;;;;;;;;;350826;151;865399;-57
2022/05/20 02:10:16;;;;;;;6.00;2.23;;;;;;;;;;354245;151;857460;-57
2022/05/20 02:11:22;;;;;;;3.36;1.93;;;;;;;;;;351073;151;858910;-57
2022/05/20 02:12:25;;;;;;;5.17;1.98;;;;;;;;;;353431;151;859289;-59
2022/05/20 02:13:27;;;;;;;3.81;2.45;;;;;;;;;;352306;151;858419;-58
2022/05/20 02:14:31;;;;;;;4.46;2.16;;;;;;;;;;354990;151;864771;-59
2022/05/20 02:15:34;;;;;;;4.41;2.17;;;;;;;;;;347068;154;865367;-58
2022/05/20 02:16:37;;;;;;;4.42;2.15;;;;;;;;;;342436;155;857235;-58
2022/05/20 02:17:39;;;;;;;7.95;2.95;;;;;;;;;;343717;155;864745;-59
2022/05/20 02:18:42;;;;;;;5.13;1.95;;;;;;;;;;344546;154;857692;-58
2022/05/20 02:19:47;;;;;;;4.39;2.05;;;;;;;;;;348486;151;857435;-57
2022/05/20 02:20:49;;;;;;;6.84;2.21;;;;;;;;;;341614;157;856369;-58
2022/05/20 02:21:51;;;;;;;4.32;2.41;;;;;;;;;;340908;157;857181;-56
2022/05/20 02:22:54;;;;;;;6.37;2.15;;;;;;;;;;340821;155;859224;-57
2022/05/20 02:23:57;;;;;;;4.81;2.43;;;;;;;;;;341683;154;858986;-57
2022/05/20 02:24:59;;;;;;;4.04;2.12;;;;;;;;;;347234;152;857917;-57
2022/05/20 02:26:05;;;;;;;3.27;2.04;;;;;;;;;;339401;157;859093;-57
2022/05/20 02:27:07;;;;;;;5.93;2.29;;;;;;;;;;346316;152;865535;-57
2022/05/20 02:28:11;;;;;;;3.88;2.18;;;;;;;;;;339195;157;857263;-57
2022/05/20 02:29:14;;;;;;;5.89;2.37;;;;;;;;;;342097;155;863684;-57
2022/05/20 02:30:18;;;;;;;3.84;2.26;;;;;;;;;;341592;155;865704;-56
2022/05/20 02:31:24;;;;;;;4.66;2.32;;;;;;;;;;346697;154;858890;-57
2022/05/20 02:32:30;;;;;;;10.09;2.23;;;;;;;;;;337802;156;858562;-58
2022/05/20 02:33:31;;;;;;;5.51;2.28;;;;;;;;;;344441;155;858281;-56
2022/05/20 02:34:34;;;;;;;6.09;2.25;;;;;;;;;;339505;154;859696;-58
2022/05/20 02:35:36;;;;;;;6.31;2.28;;;;;;;;;;346496;154;865658;-58
2022/05/20 02:36:37;;;;;;;5.99;2.46;;;;;;;;;;346655;154;857312;-57
2022/05/20 02:37:39;;;;;;;3.27;2.04;;;;;;;;;;338530;157;859385;-58
2022/05/20 02:38:41;;;;;;;3.29;2.11;;;;;;;;;;340251;156;864763;-59
2022/05/20 02:39:42;;;;;;;3.52;1.84;;;;;;;;;;344613;155;866325;-58
2022/05/20 02:40:45;;;;;;;2.84;2.04;;;;;;;;;;344294;152;856321;-58
2022/05/20 02:41:47;;;;;;;7.01;2.46;;;;;;;;;;344962;153;863327;-56
2022/05/20 02:42:49;;;;;;;4.95;2.44;;;;;;;;;;346205;154;856020;-57
2022/05/20 02:43:51;;;;;;;6.06;2.05;;;;;;;;;;345654;155;856473;-58
2022/05/20 02:44:52;;;;;;;7.50;2.81;;;;;;;;;;345916;155;856420;-57
2022/05/20 02:45:54;;;;;;;4.29;2.05;;;;;;;;;;346255;155;864135;-57
2022/05/20 02:46:56;;;;;;;7.98;2.33;;;;;;;;;;346806;155;856378;-57
2022/05/20 02:47:57;;;;;;;2.97;1.76;;;;;;;;;;346019;155;856199;-58
2022/05/20 02:48:59;;;;;;;4.68;2.29;;;;;;;;;;342104;154;856331;-57
2022/05/20 02:50:02;;;;;;;5.55;2.06;;;;;;;;;;341816;157;856869;-57
2022/05/20 02:51:04;;;;;;;6.06;1.75;;;;;;;;;;340847;157;856249;-57
2022/05/20 02:52:06;;;;;;;4.48;2.31;;;;;;;;;;346592;154;856967;-59
2022/05/20 02:53:08;;;;;;;7.51;2.11;;;;;;;;;;347868;154;856622;-57
2022/05/20 02:54:09;;;;;;;6.91;2.79;;;;;;;;;;347712;154;856360;-57
2022/05/20 02:55:11;;;;;;;4.26;2.12;;;;;;;;;;347060;154;864238;-57
2022/05/20 02:56:13;;;;;;;5.01;1.82;;;;;;;;;;347101;154;863652;-57
2022/05/20 02:57:16;;;;;;;4.19;2.08;;;;;;;;;;345082;152;856707;-58
2022/05/20 03:04:57;;;;;;;7.03;2.15;;;;;;;;;;348514;151;856381;-58
2022/05/20 03:05:58;;;;;;;4.56;2.22;;;;;;;;;;357165;147;856823;-58
2022/05/20 03:07:00;;;;;;;3.05;2.12;;;;;;;;;;357383;149;863813;-59
2022/05/20 03:08:02;;;;;;;3.21;1.96;;;;;;;;;;357664;147;863689;-59
2022/05/20 03:09:04;;;;;;;4.34;2.26;;;;;;;;;;358382;150;856314;-58
2022/05/20 03:10:06;;;;;;;3.49;2.09;;;;;;;;;;359184;147;856655;-57
2022/05/20 03:11:07;;;;;;;4.71;2.36;;;;;;;;;;358013;147;863569;-58
2022/05/20 03:12:10;;;;;;;5.56;2.05;;;;;;;;;;358474;147;863576;-59
2022/05/20 03:13:12;;;;;;;3.47;2.31;;;;;;;;;;356776;147;856159;-58
2022/05/20 03:14:15;;;;;;;4.15;2.09;;;;;;;;;;358016;147;856471;-58
2022/05/20 03:15:17;;;;;;;4.12;2.05;;;;;;;;;;357848;147;863695;-56
2022/05/20 03:16:19;;;;;;;5.88;2.22;;;;;;;;;;357522;147;856656;-58
2022/05/20 03:17:20;;;;;;;4.01;2.18;;;;;;;;;;358799;147;856172;-57
2022/05/20 03:18:22;;;;;;;6.21;2.43;;;;;;;;;;357147;147;857778;-57
2022/05/20 03:19:24;;;;;;;5.78;1.98;;;;;;;;;;357164;147;858289;-57
2022/05/20 03:20:25;;;;;;;5.19;2.36;;;;;;;;;;356445;147;860418;-57
2022/05/20 03:21:27;;;;;;;4.25;1.96;;;;;;;;;;358605;147;865508;-56
2022/05/20 03:22:29;;;;;;;4.43;2.54;;;;;;;;;;358164;147;858586;-58
2022/05/20 03:23:30;;;;;;;5.36;2.84;;;;;;;;;;358537;147;857474;-57
2022/05/20 03:24:32;;;;;;;5.21;2.05;;;;;;;;;;357078;147;859172;-56
2022/05/20 03:25:34;;;;;;;6.01;2.73;;;;;;;;;;358172;147;859487;-56
2022/05/20 03:26:36;;;;;;;4.09;2.31;;;;;;;;;;358538;147;857103;-56
2022/05/20 03:27:37;;;;;;;3.65;2.04;;;;;;;;;;356454;147;864813;-55
2022/05/20 03:28:39;;;;;;;5.94;2.56;;;;;;;;;;357403;147;857421;-56
2022/05/20 03:29:41;;;;;;;3.71;2.15;;;;;;;;;;357669;147;857452;-57
2022/05/20 03:30:43;;;;;;;3.79;2.36;;;;;;;;;;357458;148;857653;-56
2022/05/20 03:31:44;;;;;;;3.46;2.21;;;;;;;;;;357291;147;863745;-56
2022/05/20 03:32:46;;;;;;;8.44;2.64;;;;;;;;;;357757;147;857654;-56
2022/05/20 03:33:47;;;;;;;6.32;2.27;;;;;;;;;;357498;147;866566;-56
2022/05/20 03:34:49;;;;;;;2.66;2.16;;;;;;;;;;360027;147;858159;-55
2022/05/20 03:35:50;;;;;;;4.23;2.14;;;;;;;;;;358023;147;857935;-56
2022/05/20 03:36:52;;;;;;;5.79;2.15;;;;;;;;;;358987;147;861817;-56
2022/05/20 03:37:54;;;;;;;6.18;2.18;;;;;;;;;;357100;147;865162;-55
2022/05/20 03:38:56;;;;;;;4.63;2.23;;;;;;;;;;355885;147;865178;-57
2022/05/20 03:39:57;;;;;;;4.80;2.59;;;;;;;;;;357978;147;857294;-54
2022/05/20 03:40:59;;;;;;;3.86;2.25;;;;;;;;;;358204;147;858292;-55
2022/05/20 03:42:01;;;;;;;6.34;2.36;;;;;;;;;;358469;147;865787;-55
2022/05/20 03:43:03;;;;;;;7.27;2.66;;;;;;;;;;357268;149;865652;-55
2022/05/20 03:44:06;;;;;;;3.93;2.30;;;;;;;;;;357517;147;859818;-56
2022/05/20 03:45:09;;;;;;;8.21;2.58;;;;;;;;;;357988;147;859335;-56
2022/05/20 03:46:12;;;;;;;4.46;2.29;;;;;;;;;;356432;147;859333;-55
2022/05/20 03:47:13;;;;;;;8.86;2.35;;;;;;;;;;357252;147;858475;-55
2022/05/20 03:48:15;;;;;;;9.66;4.27;;;;;;;;;;356689;147;864788;-56
2022/05/20 03:49:16;;;;;;;5.74;2.66;;;;;;;;;;358415;147;857259;-56
2022/05/20 03:50:18;;;;;;;3.90;2.29;;;;;;;;;;356437;147;858818;-54
2022/05/20 03:51:20;;;;;;;2.89;2.14;;;;;;;;;;358472;147;866647;-54
2022/05/20 03:52:22;;;;;;;4.50;2.28;;;;;;;;;;357168;147;864760;-56
2022/05/20 03:53:23;;;;;;;5.74;2.23;;;;;;;;;;355312;147;857255;-56
2022/05/20 03:54:25;;;;;;;4.37;2.19;;;;;;;;;;357479;147;856978;-56
2022/05/20 03:55:27;;;;;;;9.10;2.21;;;;;;;;;;357898;147;858583;-56
2022/05/20 03:56:29;;;;;;;9.33;2.77;;;;;;;;;;359270;147;859597;-57
2022/05/20 03:57:31;;;;;;;7.47;2.59;;;;;;;;;;358512;147;857258;-62
2022/05/20 03:58:32;;;;;;;6.32;2.43;;;;;;;;;;356983;147;866825;-56
2022/05/20 03:59:36;;;;;;;7.07;2.73;;;;;;;;;;357999;147;856143;-55
2022/05/20 04:01:57;;;;;;;5.89;2.45;;;;;;;;;;339780;155;857323;-56
2022/05/20 04:03:00;;;;;;;3.19;2.35;;;;;;;;;;352824;147;857821;-59
2022/05/20 04:04:02;;;;;;;3.71;2.25;;;;;;;;;;351618;150;859236;-58
2022/05/20 04:05:04;;;;;;;11.22;2.54;;;;;;;;;;357164;147;864789;-58
2022/05/20 04:06:06;;;;;;;3.63;2.36;;;;;;;;;;358164;147;865970;-58
2022/05/20 04:07:08;;;;;;;6.53;2.74;;;;;;;;;;357553;147;856279;-57
2022/05/20 04:08:10;;;;;;;6.96;2.45;;;;;;;;;;357219;147;857196;-59
2022/05/20 04:09:11;;;;;;;4.57;2.20;;;;;;;;;;357012;147;858594;-59
2022/05/20 04:10:13;;;;;;;3.68;2.36;;;;;;;;;;357261;147;857816;-62
2022/05/20 04:11:14;;;;;;;4.65;2.29;;;;;;;;;;355753;147;866547;-55
2022/05/20 04:12:30;;;;;;;6.47;2.59;;;;;;;;;;356843;147;857249;-58
2022/05/20 04:13:32;;;;;;;4.16;2.32;;;;;;;;;;357108;147;865241;-59
2022/05/20 04:14:34;;;;;;;6.05;2.72;;;;;;;;;;357489;147;857943;-59
2022/05/20 04:15:36;;;;;;;4.17;2.47;;;;;;;;;;358153;147;857180;-56
2022/05/20 04:16:37;;;;;;;4.76;2.12;;;;;;;;;;357974;147;858613;-57
2022/05/20 04:17:39;;;;;;;4.10;2.90;;;;;;;;;;357555;148;867023;-55
2022/05/20 04:18:42;;;;;;;4.97;2.11;;;;;;;;;;357611;148;857254;-57
2022/05/20 04:19:44;;;;;;;4.26;2.54;;;;;;;;;;357443;147;859297;-55
2022/05/20 04:20:47;;;;;;;2.90;2.06;;;;;;;;;;350014;150;857332;-55
2022/05/20 04:21:49;;;;;;;5.01;2.47;;;;;;;;;;350325;150;858998;-61
2022/05/20 04:22:51;;;;;;;5.96;2.49;;;;;;;;;;355660;147;861660;-55
2022/05/20 04:23:52;;;;;;;3.69;2.30;;;;;;;;;;356804;147;866164;-61
2022/05/20 04:24:54;;;;;;;11.03;2.50;;;;;;;;;;356220;147;859233;-58
2022/05/20 04:25:56;;;;;;;4.65;2.46;;;;;;;;;;356956;149;865466;-58
2022/05/20 04:26:58;;;;;;;6.21;2.36;;;;;;;;;;357261;147;865320;-60
2022/05/20 04:27:59;;;;;;;7.73;2.66;;;;;;;;;;357274;147;865308;-60
2022/05/20 04:29:01;;;;;;;4.63;2.03;;;;;;;;;;359235;147;866124;-59
2022/05/20 04:30:03;;;;;;;3.29;2.10;;;;;;;;;;356384;147;857854;-59
2022/05/20 04:31:05;;;;;;;5.34;2.41;;;;;;;;;;359408;147;864850;-58
2022/05/20 04:32:07;;;;;;;6.58;2.66;;;;;;;;;;357295;147;856640;-59
2022/05/20 04:33:10;;;;;;;5.51;2.35;;;;;;;;;;357892;147;857321;-56
2022/05/20 04:34:12;;;;;;;7.46;2.67;;;;;;;;;;357040;150;859247;-58
2022/05/20 04:35:13;;;;;;;4.11;2.27;;;;;;;;;;357677;147;857266;-57
2022/05/20 04:36:17;;;;;;;3.58;2.24;;;;;;;;;;357115;147;856818;-59
2022/05/20 04:37:18;;;;;;;5.56;2.39;;;;;;;;;;357094;147;857163;-58
2022/05/20 04:38:20;;;;;;;6.10;2.30;;;;;;;;;;356597;147;858191;-57
2022/05/20 04:39:21;;;;;;;4.41;2.66;;;;;;;;;;356992;147;860016;-56
2022/05/20 04:40:23;;;;;;;4.41;2.34;;;;;;;;;;357777;147;860847;-57
2022/05/20 04:46:57;;;;;;;4.19;2.28;;;;;;;;;;354838;147;857879;-63
2022/05/20 04:48:00;;;;;;;10.17;2.27;;;;;;;;;;354806;149;861916;-58
2022/05/20 04:49:02;;;;;;;6.08;2.29;;;;;;;;;;356959;150;857601;-57
2022/05/20 04:50:08;;;;;;;8.33;3.24;;;;;;;;;;357087;147;860312;-57
2022/05/20 04:51:11;;;;;;;9.13;2.71;;;;;;;;;;343406;154;858740;-59
2022/05/20 04:52:13;;;;;;;9.03;2.67;;;;;;;;;;341835;154;860039;-58
2022/05/20 04:54:49;;;;;;;4.96;2.43;;;;;;;;;;357214;148;860312;-57
2022/05/20 04:55:38;;;;;;;10.44;2.94;;;;;;;;;;357231;149;857225;-58
2022/05/20 04:56:40;;;;;;;6.61;3.13;;;;;;;;;;357198;147;864796;-58
2022/05/20 04:57:45;;;;;;;5.74;2.79;;;;;;;;;;350270;150;867421;-56
2022/05/20 04:58:47;;;;;;;7.98;2.74;;;;;;;;;;348801;151;864748;-55
2022/05/20 04:59:51;;;;;;;6.25;2.66;;;;;;;;;;348858;151;857313;-57
2022/05/20 05:00:54;;;;;;;5.11;2.45;;;;;;;;;;347984;151;856165;-57
2022/05/20 05:01:55;;;;;;;3.89;2.43;;;;;;;;;;347424;154;856151;-58
2022/05/20 05:02:57;;;;;;;3.71;2.46;;;;;;;;;;347714;153;863873;-58
2022/05/20 05:03:59;;;;;;;5.43;2.87;;;;;;;;;;348361;151;856309;-57
2022/05/20 05:05:00;;;;;;;5.60;2.84;;;;;;;;;;348144;151;856490;-57
2022/05/20 05:06:02;;;;;;;8.50;2.86;;;;;;;;;;347915;151;856243;-58
2022/05/20 05:07:09;;;;;;;5.54;2.34;;;;;;;;;;347354;153;856385;-57
2022/05/20 05:08:07;;;;;;;5.46;2.86;;;;;;;;;;348213;151;856276;-57
2022/05/20 05:21:12;;;;;;;5.93;2.73;;;;;;;14.32;48.39;100281.50;370306;142;873900;-57
2022/05/20 05:22:14;;;;;;;9.50;3.24;;;;;;;14.22;48.08;100283.39;364572;147;856073;-58
2022/05/20 05:23:16;;;;;;;12.44;2.77;;;;;;;;;;358916;148;856158;-56
2022/05/20 05:24:18;;;;;;;4.79;2.88;;;;;;;;;;359576;148;856107;-57
2022/05/20 05:25:20;;;;;;;7.71;3.02;;;;;;;;;;360275;148;863546;-57
2022/05/20 05:26:22;;;;;;;6.88;3.23;;;;;;;;;;359986;147;856918;-57
2022/05/20 05:27:24;;;;;;;8.42;3.35;;;;;;;;;;360098;147;863570;-57
2022/05/20 05:28:26;;;;;;;6.02;3.28;;;;;;;;;;359953;147;856192;-57
2022/05/20 05:29:28;;;;;;;9.48;4.11;;;;;;;;;;347803;153;856519;-58
2022/05/20 05:30:30;;;;;;;8.04;3.41;;;;;;;;;;355834;148;858974;-57
2022/05/20 05:31:32;;;;;;;5.92;3.42;;;;;;;;;;354552;148;860934;-58
2022/05/20 05:32:35;;;;;;;6.56;3.69;;;;;;;;;;359260;147;857499;-58
2022/05/20 05:33:37;;;;;;;5.67;3.08;;;;;;;;;;359741;147;858906;-57
2022/05/20 05:34:39;;;;;;;6.34;3.18;;;;;;;;;;359630;148;858267;-57
2022/05/20 05:35:40;;;;;;;6.05;2.82;;;;;;;;;;358481;147;865263;-57
2022/05/20 05:36:43;;;;;;;7.71;3.89;;;;;;;;;;359025;147;857290;-59
2022/05/20 05:37:45;;;;;;;5.56;3.22;;;;;;;;;;358960;147;856370;-59
2022/05/20 05:38:47;;;;;;;7.75;3.24;;;;;;;;;;359378;147;858207;-56
2022/05/20 05:39:48;;;;;;;7.86;3.54;;;;;;;;;;357392;149;859827;-58
2022/05/20 05:40:50;;;;;;;9.93;3.59;;;;;;;;;;359477;148;857176;-58
2022/05/20 05:41:52;;;;;;;5.61;3.36;;;;;;;;;;359803;147;865436;-60
2022/05/20 05:42:56;;;;;;;6.98;3.29;;;;;;;;;;360037;147;867538;-57
2022/05/20 05:44:03;;;;;;;6.62;3.74;;;;;;;;;;358291;148;858922;-57
2022/05/20 05:45:03;;;;;;;7.52;3.64;;;;;;;;;;357645;148;857396;-57
2022/05/20 05:46:05;;;;;;;9.75;3.30;;;;;;;;;;359388;147;857363;-57
2022/05/20 05:47:06;;;;;;;9.44;3.34;;;;;;;;;;362225;147;857112;-57
2022/05/20 05:48:09;;;;;;;5.31;3.06;;;;;;;;;;362154;147;866480;-58
2022/05/20 05:49:10;;;;;;;11.25;3.21;;;;;;;;;;359793;148;865069;-57
2022/05/20 05:50:12;;;;;;;8.22;3.09;;;;;;;;;;360712;147;857233;-57
2022/05/20 05:51:14;;;;;;;6.20;3.16;;;;;;;;;;359250;147;857242;-57
2022/05/20 05:52:17;;;;;;;6.10;3.54;;;;;;;;;;360049;147;857186;-57
2022/05/20 05:53:19;;;;;;;7.24;3.46;;;;;;;;;;359449;148;856183;-56
2022/05/20 05:54:22;;;;;;;11.68;3.44;;;;;;;;;;360447;146;864324;-57
2022/05/20 05:55:24;;;;;;;10.95;4.27;;;;;;;;;;355774;147;856138;-57
2022/05/20 05:56:25;;;;;;;13.03;5.13;;;;;;;;;;360210;147;856780;-57
2022/05/20 05:57:28;;;;;;;11.21;4.96;;;;;;;;;;359250;147;856232;-57
2022/05/20 05:58:30;;;;;;;16.62;5.94;;;;;;;;;;360614;148;856975;-58
2022/05/20 05:59:32;;;;;;;20.37;9.45;;;;;;;;;;359999;148;856137;-56
2022/05/20 06:00:34;;;;;;;22.77;9.39;;;;;;;;;;360850;147;856790;-57
2022/05/20 06:01:36;;;;;;;25.38;10.86;;;;;;;;;;357931;148;856289;-58
2022/05/20 06:04:25;;;;;;;24.78;11.06;;;;;;;16.03;39.00;100270.11;370891;141;882134;-58
2022/05/20 06:05:26;;;;;;;23.90;10.56;;;;;;;15.96;39.26;100278.99;364108;147;857602;-59
2022/05/20 06:06:28;;;;;;;27.59;10.37;;;;;;;16.04;39.91;100266.59;363553;144;858054;-59
2022/05/20 06:07:30;;;;;;;29.30;10.34;;;;;;;16.16;40.88;100270.63;362534;144;859332;-60
2022/05/20 06:08:32;;;;;;;23.25;10.41;;;;;;;16.29;40.29;100274.63;364057;144;864962;-58
2022/05/20 06:09:34;;;;;;;28.06;11.49;;;;;;;16.39;39.65;100269.16;362999;144;860415;-60
2022/05/20 06:10:36;;;;;;;27.09;11.79;;;;;;;16.43;38.88;100269.05;361826;145;858842;-57
2022/05/20 06:11:39;;;;;;;29.96;12.37;;;;;;;16.43;38.78;100263.83;364177;144;857247;-57
2022/05/20 06:12:42;;;;;;;28.85;12.04;;;;;;;16.49;39.68;100263.66;364382;144;859039;-57
2022/05/20 06:13:44;;;;;;;28.20;12.80;;;;;;;16.58;40.44;100274.76;362391;145;859398;-57
2022/05/20 06:14:45;;;;;;;29.87;11.79;;;;;;;;;;361623;147;856511;-55
2022/05/20 06:15:47;;;;;;;28.30;13.13;;;;;;;;;;361433;144;858397;-58
2022/05/20 06:16:50;;;;;;;32.89;13.01;;;;;;;;;;361204;144;865375;-58
2022/05/20 06:17:51;;;;;;;30.34;12.36;;;;;;;;;;361659;144;857197;-58
2022/05/20 06:18:53;;;;;;;31.17;12.77;;;;;;;;;;363058;147;857218;-57
2022/05/20 06:19:55;;;;;;;29.47;12.71;;;;;;;;;;362301;145;857136;-57
2022/05/20 06:20:57;;;;;;;28.51;12.68;;;;;;;;;;361182;145;859170;-57
2022/05/20 06:21:59;;;;;;;25.72;12.16;;;;;;;;;;362123;144;857956;-59
2022/05/20 06:23:01;;;;;;;30.10;13.41;;;;;;;;;;358067;148;857338;-56
2022/05/20 06:24:04;;;;;;;27.91;12.39;;;;;;;;;;358531;148;857588;-58
2022/05/20 06:25:06;;;;;;;27.14;12.73;;;;;;;;;;355777;148;857272;-58
2022/05/20 06:26:09;;;;;;;28.51;12.21;;;;;;;;;;357355;147;857611;-58
2022/05/20 06:27:10;;;;;;;29.61;12.31;;;;;;;;;;358687;147;864928;-57
2022/05/20 06:28:13;;;;;;;19.37;11.35;;;;;;;;;;360047;147;857249;-57
2022/05/20 06:29:15;;;;;;;22.61;11.93;;;;;;;;;;358099;147;857328;-57
2022/05/20 06:42:09;;;;;;;24.69;11.31;;;;;;;18.09;39.37;100263.27;370607;142;877159;-58
2022/05/20 06:43:19;;;;;;;24.97;11.24;;;;;;;18.05;39.60;100264.28;358349;147;859742;-60
2022/05/20 06:44:21;;;;;;;24.26;11.16;;;;;;;;;;357324;147;859270;-59
2022/05/20 06:45:23;;;;;;;26.64;11.16;;;;;;;;;;352331;149;859062;-59
2022/05/20 06:46:26;;;;;;;22.78;10.49;;;;;;;;;;349959;150;859061;-59
2022/05/20 06:47:28;;;;;;;22.77;10.80;;;;;;;;;;358325;147;857525;-61